Lysander, New York
Current Conditions -  °F | °C
As of 3:23 AM on Thursday 18 Dec 2014 (Local Time) from KFZY Reporting Station
Overcast Overcast  
Wind Chill: 23°   Ceiling: 1500
Heat Index: 33°   Visibility: 10mi
Dew Point: 28°   Wind: 14mph
Humidity: 82%   Direction: 260°W
Pressure: 29.93"   Gusts: 24mph
Location:  43.1825°N, 76.3664°W
Report Text: KFZY 180823Z AUTO 26012G21KT 10SM BKN015 OVC020 01/M02 A2993 RMK AO2 SNE11 P0000 T00061022
Loading
Personal Weather Stations






























Interactive Weather Map New forecast layout! Learn more

10-Day Weather Forecast

Advertisements
Track Severe Weather on mobile